createdAt,value
2018-07-25T00:02:25.341Z,99.90
2018-07-25T00:05:31.010Z,99.90
2018-07-25T00:08:36.665Z,99.90
2018-07-25T00:11:41.946Z,99.90
2018-07-25T00:14:47.299Z,99.90
2018-07-25T00:17:52.589Z,99.90
2018-07-25T00:20:57.372Z,99.90
2018-07-25T00:24:01.850Z,99.90
2018-07-25T00:27:06.508Z,99.90
2018-07-25T00:30:11.002Z,99.90
2018-07-25T00:33:15.382Z,99.90
2018-07-25T00:36:19.774Z,99.90
2018-07-25T00:39:24.382Z,99.90
2018-07-25T00:42:28.787Z,99.90
2018-07-25T00:45:33.396Z,99.90
2018-07-25T00:48:37.899Z,99.90
2018-07-25T00:51:42.312Z,99.90
2018-07-25T00:54:46.756Z,99.90
2018-07-25T00:57:51.209Z,99.90
2018-07-25T01:00:55.705Z,99.90
2018-07-25T01:04:00.327Z,99.90
2018-07-25T01:07:04.884Z,99.90
2018-07-25T01:10:09.314Z,99.90
2018-07-25T01:13:13.818Z,99.90
2018-07-25T01:16:18.344Z,99.90
2018-07-25T01:19:22.740Z,99.90
2018-07-25T01:22:27.221Z,99.90
2018-07-25T01:25:31.897Z,99.90
2018-07-25T01:28:36.463Z,99.90
2018-07-25T01:31:41.041Z,99.90
2018-07-25T01:34:45.524Z,99.90
2018-07-25T01:37:50.109Z,99.90
2018-07-25T01:40:54.531Z,99.90
2018-07-25T01:43:59.307Z,99.90
2018-07-25T01:47:03.771Z,99.90
2018-07-25T01:50:08.591Z,99.90
2018-07-25T01:53:13.328Z,99.90
2018-07-25T01:56:17.888Z,99.90
2018-07-25T01:59:22.589Z,99.90
2018-07-25T02:02:27.082Z,99.90
2018-07-25T02:05:31.658Z,99.90
2018-07-25T02:08:36.056Z,99.90
2018-07-25T02:11:40.627Z,99.90
2018-07-25T02:14:45.246Z,99.90
2018-07-25T02:17:49.874Z,99.90
2018-07-25T02:20:54.490Z,99.90
2018-07-25T02:23:58.956Z,99.90
2018-07-25T02:27:03.539Z,99.90
2018-07-25T02:30:08.088Z,99.90
2018-07-25T02:33:12.603Z,99.90
2018-07-25T02:39:22.503Z,99.90
2018-07-25T02:42:27.224Z,99.90
2018-07-25T02:45:35.857Z,99.90
2018-07-25T02:48:40.415Z,99.90
2018-07-25T02:51:45.101Z,99.90
2018-07-25T02:54:49.687Z,99.90
2018-07-25T02:57:54.337Z,99.90
2018-07-25T03:00:58.858Z,99.90
2018-07-25T03:04:03.430Z,99.90
2018-07-25T03:07:07.962Z,99.90
2018-07-25T03:10:12.435Z,99.90
2018-07-25T03:13:16.934Z,99.90
2018-07-25T03:16:21.474Z,99.90
2018-07-25T03:19:26.185Z,99.90
2018-07-25T03:22:30.819Z,99.90
2018-07-25T03:25:35.374Z,99.90
2018-07-25T03:28:39.858Z,99.90
2018-07-25T03:31:44.347Z,99.90
2018-07-25T03:34:48.742Z,99.90
2018-07-25T03:37:53.255Z,99.90
2018-07-25T03:40:57.871Z,99.90
2018-07-25T03:44:02.367Z,99.90
2018-07-25T03:47:07.645Z,99.90
2018-07-25T03:50:12.245Z,99.90
2018-07-25T03:53:16.716Z,99.90
2018-07-25T03:56:21.119Z,99.90
2018-07-25T03:59:33.387Z,99.90
2018-07-25T04:02:37.790Z,99.90
2018-07-25T04:05:42.144Z,99.90
2018-07-25T04:08:46.555Z,99.90
2018-07-25T04:11:51.100Z,99.90
2018-07-25T04:14:55.487Z,99.90
2018-07-25T04:17:59.964Z,99.90
2018-07-25T04:21:04.442Z,99.90
2018-07-25T04:24:08.730Z,99.90
2018-07-25T04:27:13.327Z,99.90
2018-07-25T04:30:18.325Z,99.90
2018-07-25T04:33:22.707Z,99.90
2018-07-25T04:36:27.093Z,99.90
2018-07-25T04:39:31.398Z,99.90
2018-07-25T04:42:35.955Z,99.90
2018-07-25T04:45:40.450Z,99.90
2018-07-25T04:48:44.964Z,99.90
2018-07-25T04:51:49.640Z,99.90
2018-07-25T04:54:54.102Z,99.90
2018-07-25T04:57:58.874Z,99.90
2018-07-25T05:01:03.518Z,99.90
2018-07-25T05:04:08.783Z,99.90
2018-07-25T05:07:13.416Z,99.90
2018-07-25T05:10:18.016Z,99.90
2018-07-25T05:13:22.518Z,99.90
2018-07-25T05:16:27.148Z,99.90
2018-07-25T05:19:31.603Z,99.90
2018-07-25T05:22:36.370Z,99.90
2018-07-25T05:25:40.807Z,99.90
2018-07-25T05:28:45.347Z,99.90
2018-07-25T05:31:50.032Z,99.90
2018-07-25T05:34:54.513Z,99.90
2018-07-25T05:37:59.283Z,99.90
2018-07-25T05:41:04.559Z,99.90
2018-07-25T05:44:09.240Z,99.90
2018-07-25T05:47:13.787Z,99.90
2018-07-25T05:50:18.414Z,99.90
2018-07-25T05:53:23.631Z,99.90
2018-07-25T05:56:28.136Z,99.90
2018-07-25T05:59:32.783Z,99.90
2018-07-25T06:02:37.532Z,99.90
2018-07-25T06:05:41.994Z,99.90
2018-07-25T06:08:46.919Z,99.90
2018-07-25T06:11:51.224Z,99.90
2018-07-25T06:14:55.573Z,99.90
2018-07-25T06:18:00.011Z,99.90
2018-07-25T06:21:04.485Z,99.90
2018-07-25T06:24:09.092Z,99.90
2018-07-25T06:27:13.401Z,99.90
2018-07-25T06:30:18.050Z,99.90
2018-07-25T06:33:22.758Z,99.90
2018-07-25T06:36:27.243Z,99.90
2018-07-25T06:39:31.903Z,99.90
2018-07-25T06:42:36.678Z,99.90
2018-07-25T06:45:41.382Z,99.90
2018-07-25T06:48:45.935Z,99.90
2018-07-25T06:51:50.896Z,99.90
2018-07-25T06:54:55.600Z,99.90
2018-07-25T06:58:00.205Z,99.90
2018-07-25T07:01:04.752Z,99.90
2018-07-25T07:04:09.498Z,99.90
2018-07-25T07:07:14.102Z,99.90
2018-07-25T07:10:18.966Z,99.90
2018-07-25T07:13:23.317Z,99.90
2018-07-25T07:16:28.082Z,99.90
2018-07-25T07:19:32.520Z,99.90
2018-07-25T07:22:37.388Z,99.90
2018-07-25T07:25:41.795Z,99.90
2018-07-25T07:28:46.341Z,99.90
2018-07-25T07:31:50.828Z,99.10
2018-07-25T07:34:55.272Z,99.60
2018-07-25T07:38:00.096Z,99.50
2018-07-25T07:41:05.085Z,98.60
2018-07-25T07:44:09.568Z,99.30
2018-07-25T07:47:13.978Z,98.60
2018-07-25T07:50:18.416Z,98.70
2018-07-25T07:53:22.845Z,98.00
2018-07-25T07:56:27.174Z,98.00
2018-07-25T07:59:31.591Z,97.40
2018-07-25T08:02:36.255Z,96.40
2018-07-25T08:05:40.565Z,96.60
2018-07-25T08:08:44.976Z,96.40
2018-07-25T08:11:49.411Z,96.10
2018-07-25T08:14:53.969Z,96.10
2018-07-25T08:17:58.500Z,95.70
2018-07-25T08:21:02.848Z,95.40
2018-07-25T08:24:07.169Z,94.80
2018-07-25T08:27:11.691Z,94.30
2018-07-25T08:30:16.285Z,94.20
2018-07-25T08:33:20.626Z,94.10
2018-07-25T08:36:25.159Z,93.80
2018-07-25T08:39:29.856Z,93.70
2018-07-25T08:42:34.432Z,93.00
2018-07-25T08:45:38.887Z,92.90
2018-07-25T08:48:43.263Z,92.80
2018-07-25T08:51:47.590Z,92.80
2018-07-25T08:54:52.171Z,92.10
2018-07-25T08:57:58.173Z,91.30
2018-07-25T09:01:02.575Z,91.10
2018-07-25T09:04:06.948Z,91.20
2018-07-25T09:07:11.226Z,91.30
2018-07-25T09:10:15.529Z,91.00
2018-07-25T09:13:19.788Z,90.00
2018-07-25T09:16:24.305Z,90.10
2018-07-25T09:19:28.739Z,89.60
2018-07-25T09:22:33.095Z,89.00
2018-07-25T09:25:37.538Z,88.90
2018-07-25T09:28:41.749Z,87.80
2018-07-25T09:31:46.130Z,87.40
2018-07-25T09:34:52.087Z,85.70
2018-07-25T09:37:56.690Z,84.90
2018-07-25T09:41:01.132Z,84.30
2018-07-25T09:44:05.595Z,84.20
2018-07-25T09:47:10.132Z,83.30
2018-07-25T09:50:14.439Z,83.80
2018-07-25T09:53:18.977Z,83.80
2018-07-25T09:56:23.441Z,82.80
2018-07-25T09:59:27.824Z,82.90
2018-07-25T10:02:32.309Z,82.00
2018-07-25T10:05:36.867Z,82.20
2018-07-25T10:08:41.231Z,82.70
2018-07-25T10:11:45.627Z,81.20
2018-07-25T10:14:50.031Z,80.20
2018-07-25T10:17:54.366Z,80.90
2018-07-25T10:20:58.730Z,81.70
2018-07-25T10:24:03.032Z,81.90
2018-07-25T10:27:07.665Z,79.80
2018-07-25T10:30:11.990Z,79.10
2018-07-25T10:33:16.317Z,78.50
2018-07-25T10:39:24.884Z,77.20
2018-07-25T10:42:29.415Z,76.80
2018-07-25T10:45:33.994Z,75.80
2018-07-25T10:48:38.495Z,75.30
2018-07-25T10:51:42.759Z,74.30
2018-07-25T10:54:47.375Z,74.20
2018-07-25T10:57:51.672Z,74.40
2018-07-25T11:00:56.257Z,73.50
2018-07-25T11:04:00.620Z,73.10
2018-07-25T11:07:05.086Z,73.10
2018-07-25T11:10:09.758Z,73.90
2018-07-25T11:13:14.065Z,72.30
2018-07-25T11:16:18.548Z,72.60
2018-07-25T11:19:23.004Z,72.40
2018-07-25T11:22:27.435Z,71.40
2018-07-25T11:25:31.996Z,72.10
2018-07-25T11:28:36.414Z,71.20
2018-07-25T11:31:40.843Z,71.00
2018-07-25T11:34:45.676Z,71.70
2018-07-25T11:37:50.064Z,71.90
2018-07-25T11:40:54.437Z,73.10
2018-07-25T11:43:58.884Z,74.00
2018-07-25T11:47:03.573Z,73.60
2018-07-25T11:50:08.273Z,75.90
2018-07-25T11:53:12.543Z,79.50
2018-07-25T11:56:17.153Z,79.60
2018-07-25T11:59:21.813Z,80.20
2018-07-25T12:02:26.221Z,79.00
2018-07-25T12:05:30.522Z,80.50
2018-07-25T12:08:34.957Z,81.60
2018-07-25T12:11:47.485Z,82.20
2018-07-25T12:14:52.170Z,81.70
2018-07-25T12:17:56.561Z,80.10
2018-07-25T12:21:01.029Z,81.40
2018-07-25T12:24:05.578Z,82.60
2018-07-25T12:27:10.103Z,82.50
2018-07-25T12:30:14.695Z,82.20
2018-07-25T12:36:23.291Z,85.10
2018-07-25T12:39:27.681Z,84.80
2018-07-25T12:42:32.138Z,84.50
2018-07-25T12:45:36.565Z,85.90
2018-07-25T12:48:41.123Z,85.90
2018-07-25T12:51:45.682Z,86.10
2018-07-25T12:54:50.097Z,86.00
2018-07-25T12:57:54.619Z,86.10
2018-07-25T13:00:59.233Z,86.90
2018-07-25T13:04:03.790Z,87.00
2018-07-25T13:07:08.386Z,88.40
2018-07-25T13:10:12.803Z,89.10
2018-07-25T13:13:17.263Z,88.30
2018-07-25T13:16:21.568Z,87.90
2018-07-25T13:19:26.201Z,87.30
2018-07-25T13:22:30.648Z,86.30
2018-07-25T13:25:35.008Z,84.20
2018-07-25T13:28:39.349Z,82.10
2018-07-25T13:31:43.753Z,81.10
2018-07-25T13:34:48.042Z,79.10
2018-07-25T13:37:52.523Z,79.80
2018-07-25T13:40:56.864Z,81.10
2018-07-25T13:44:01.271Z,81.50
2018-07-25T13:47:05.925Z,82.10
2018-07-25T13:50:10.355Z,81.50
2018-07-25T13:53:14.747Z,81.70
2018-07-25T13:56:19.145Z,79.00
2018-07-25T13:59:23.726Z,80.40
2018-07-25T14:02:28.116Z,79.00
2018-07-25T14:05:32.727Z,77.70
2018-07-25T14:08:37.056Z,76.90
2018-07-25T14:11:41.918Z,78.50
2018-07-25T14:14:46.273Z,79.10
2018-07-25T14:17:50.941Z,79.20
2018-07-25T14:20:55.248Z,80.00
2018-07-25T14:24:00.129Z,81.00
2018-07-25T14:27:04.305Z,81.70
2018-07-25T14:30:08.660Z,82.50
2018-07-25T14:33:13.250Z,83.30
2018-07-25T14:36:17.672Z,83.70
2018-07-25T14:39:21.985Z,83.80
2018-07-25T14:42:29.352Z,84.60
2018-07-25T14:45:34.494Z,84.40
2018-07-25T14:48:42.938Z,81.60
2018-07-25T14:51:47.595Z,79.20
2018-07-25T14:54:51.955Z,78.70
2018-07-25T14:58:04.775Z,79.00
2018-07-25T15:01:09.118Z,77.80
2018-07-25T15:04:14.034Z,76.20
2018-07-25T15:07:18.480Z,75.90
2018-07-25T15:10:34.607Z,75.40
2018-07-25T15:13:41.356Z,73.60
2018-07-25T15:16:45.797Z,73.70
2018-07-25T15:19:50.244Z,73.80
2018-07-25T15:22:55.369Z,72.60
2018-07-25T15:26:00.082Z,72.20
2018-07-25T15:29:05.619Z,71.20
2018-07-25T15:32:09.952Z,70.20
2018-07-25T15:35:14.207Z,68.10
2018-07-25T15:38:19.555Z,67.60
2018-07-25T15:41:24.706Z,67.70
2018-07-25T15:44:29.199Z,79.10
2018-07-25T15:47:33.872Z,83.70
2018-07-25T15:50:38.496Z,87.90
2018-07-25T15:53:44.743Z,90.50
2018-07-25T15:56:49.482Z,92.60
2018-07-25T15:59:54.525Z,94.20
2018-07-25T16:02:58.886Z,95.30
2018-07-25T16:06:10.371Z,96.10
2018-07-25T16:09:15.772Z,96.10
2018-07-25T16:12:20.396Z,96.20
2018-07-25T16:15:25.486Z,96.50
2018-07-25T16:18:30.593Z,96.50
2018-07-25T16:21:38.651Z,95.70
2018-07-25T16:24:43.305Z,94.50
2018-07-25T16:27:48.690Z,94.00
2018-07-25T16:30:54.220Z,93.80
2018-07-25T16:33:58.577Z,93.10
2018-07-25T16:37:03.025Z,92.50
2018-07-25T16:40:07.435Z,92.20
2018-07-25T16:43:11.947Z,92.10
2018-07-25T16:46:16.366Z,91.80
2018-07-25T16:49:21.785Z,91.10
2018-07-25T16:52:26.465Z,90.90
2018-07-25T16:55:30.812Z,90.20
2018-07-25T16:58:35.176Z,88.20
2018-07-25T17:01:39.569Z,88.10
2018-07-25T17:04:43.979Z,88.60
2018-07-25T17:07:48.448Z,87.80
2018-07-25T17:10:52.895Z,87.20
2018-07-25T17:13:58.429Z,86.00
2018-07-25T17:17:03.240Z,85.70
2018-07-25T17:20:08.409Z,84.60
2018-07-25T17:23:12.764Z,84.30
2018-07-25T17:26:17.208Z,84.80
2018-07-25T17:29:22.939Z,85.90
2018-07-25T17:32:27.701Z,87.00
2018-07-25T17:35:33.408Z,88.20
2018-07-25T17:38:38.090Z,90.10
2018-07-25T17:44:47.707Z,91.20
2018-07-25T17:47:52.053Z,91.50
2018-07-25T17:50:56.393Z,91.90
2018-07-25T17:54:01.089Z,92.00
2018-07-25T17:57:06.215Z,92.40
2018-07-25T18:00:11.631Z,92.70
2018-07-25T18:03:16.569Z,93.10
2018-07-25T18:06:21.498Z,93.50
2018-07-25T18:09:28.874Z,94.10
2018-07-25T18:12:33.415Z,93.80
2018-07-25T18:15:38.302Z,93.90
2018-07-25T18:18:42.938Z,93.80
2018-07-25T18:21:55.246Z,94.10
2018-07-25T18:25:00.870Z,94.60
2018-07-25T18:28:05.369Z,94.70
2018-07-25T18:31:09.781Z,94.90
2018-07-25T18:34:15.173Z,95.40
2018-07-25T18:37:19.768Z,95.50
2018-07-25T18:40:24.328Z,95.90
2018-07-25T18:43:29.748Z,96.20
2018-07-25T18:46:34.168Z,96.40
2018-07-25T18:49:38.973Z,96.70
2018-07-25T18:52:44.449Z,97.00
2018-07-25T18:55:49.028Z,97.30
2018-07-25T18:58:54.640Z,96.80
2018-07-25T19:01:59.225Z,97.10
2018-07-25T19:05:03.577Z,97.30
2018-07-25T19:08:08.222Z,97.90
2018-07-25T19:11:12.915Z,97.80
2018-07-25T19:14:22.689Z,97.90
2018-07-25T19:17:27.135Z,98.30
2018-07-25T19:20:31.636Z,99.00
2018-07-25T19:23:36.022Z,99.40
2018-07-25T19:26:40.806Z,99.90
2018-07-25T19:29:45.271Z,99.90
2018-07-25T19:32:51.109Z,99.60
2018-07-25T19:35:55.756Z,98.50
2018-07-25T19:39:00.071Z,97.90
2018-07-25T19:42:06.382Z,97.30
2018-07-25T19:45:10.812Z,97.10
2018-07-25T19:48:15.217Z,97.10
2018-07-25T19:51:20.146Z,97.10
2018-07-25T19:54:25.269Z,96.90
2018-07-25T19:57:29.877Z,96.90
2018-07-25T20:00:35.119Z,98.00
2018-07-25T20:03:39.589Z,97.40
2018-07-25T20:06:43.972Z,97.00
2018-07-25T20:09:48.500Z,96.30
2018-07-25T20:12:53.025Z,96.40
2018-07-25T20:15:58.387Z,96.70
2018-07-25T20:19:02.662Z,96.20
2018-07-25T20:22:07.053Z,96.20
2018-07-25T20:25:11.640Z,96.50
2018-07-25T20:28:16.138Z,96.90
2018-07-25T20:31:20.871Z,97.40
2018-07-25T20:34:25.439Z,97.30
2018-07-25T20:37:30.302Z,97.20
2018-07-25T20:40:36.238Z,97.10
2018-07-25T20:43:40.806Z,97.40
2018-07-25T20:46:45.390Z,97.60
2018-07-25T20:49:50.064Z,97.90
2018-07-25T20:52:54.592Z,98.20
2018-07-25T20:55:59.318Z,98.40
2018-07-25T20:59:03.863Z,98.40
2018-07-25T21:02:08.922Z,98.60
2018-07-25T21:05:13.450Z,98.60
2018-07-25T21:08:17.937Z,98.60
2018-07-25T21:11:22.704Z,98.80
2018-07-25T21:14:27.236Z,98.90
2018-07-25T21:17:31.832Z,98.90
2018-07-25T21:20:36.505Z,98.90
2018-07-25T21:23:40.944Z,99.00
2018-07-25T21:26:45.418Z,99.00
2018-07-25T21:29:50.007Z,99.20
2018-07-25T21:32:54.524Z,99.20
2018-07-25T21:35:58.969Z,99.40
2018-07-25T21:39:03.856Z,99.40
2018-07-25T21:42:08.423Z,99.30
2018-07-25T21:45:13.326Z,99.40
2018-07-25T21:48:18.167Z,99.50
2018-07-25T21:51:22.780Z,99.90
2018-07-25T21:54:27.344Z,99.80
2018-07-25T21:57:31.717Z,99.90
2018-07-25T22:00:36.365Z,99.80
2018-07-25T22:03:40.721Z,98.60
2018-07-25T22:06:45.167Z,99.90
2018-07-25T22:09:49.796Z,99.90
2018-07-25T22:12:54.930Z,99.90
2018-07-25T22:15:59.557Z,99.90
2018-07-25T22:19:09.363Z,99.90
2018-07-25T22:22:13.701Z,99.90
2018-07-25T22:25:18.272Z,99.90
2018-07-25T22:28:23.031Z,99.90
2018-07-25T22:31:27.560Z,99.90
2018-07-25T22:34:32.090Z,99.90
2018-07-25T22:37:36.507Z,99.90
2018-07-25T22:40:41.001Z,99.90
2018-07-25T22:43:45.592Z,99.90
2018-07-25T22:46:50.305Z,99.90
2018-07-25T22:49:55.023Z,99.90
2018-07-25T22:53:00.178Z,99.90
2018-07-25T22:56:05.636Z,99.90
2018-07-25T22:59:10.243Z,99.90
2018-07-25T23:02:14.854Z,99.90
2018-07-25T23:05:19.560Z,99.90
2018-07-25T23:08:24.211Z,99.90
2018-07-25T23:11:28.746Z,99.90
2018-07-25T23:14:33.844Z,99.90
2018-07-25T23:17:38.495Z,99.90
2018-07-25T23:20:43.331Z,99.90
2018-07-25T23:23:47.846Z,99.90
2018-07-25T23:26:52.304Z,99.90
2018-07-25T23:29:57.168Z,99.90
2018-07-25T23:33:01.752Z,99.90
2018-07-25T23:36:06.122Z,99.90
2018-07-25T23:39:11.490Z,99.90
2018-07-25T23:42:16.016Z,99.90
2018-07-25T23:45:20.509Z,99.90
2018-07-25T23:48:25.115Z,99.90
2018-07-25T23:51:29.411Z,99.90
2018-07-25T23:54:34.098Z,99.90
2018-07-25T23:57:38.573Z,99.90
